Time;durP1;ratioP1;P1;durP2;ratioP2;P2;SDS_P1;SDS_P2;PMS_P1;PMS_P2;Temp;Humidity;BMP_temperature;BMP_pressure;BME280_temperature;BME280_humidity;BME280_pressure;Samples;Min_cycle;Max_cycle;Signal;HPM_P1;HPM_P2
2023/03/19 00:01:04;;;;;;;;;;;12.10;99.90;;;;;;8374609;28;19930;-69
2023/03/19 00:05:06;;;;;;;;;;;12.10;99.90;;;;;;8371464;28;19932;-69
2023/03/19 00:09:07;;;;;;;;;;;12.10;99.90;;;;;;8387650;28;20402;-69
2023/03/19 00:28:19;;;;;;;;;;;12.00;99.90;;;;;;8384494;28;19923;-70
2023/03/19 00:32:21;;;;;;;;;;;12.00;99.90;;;;;;8377443;28;20011;-69
2023/03/19 00:36:24;;;;;;;;;;;11.90;99.90;;;;;;8383901;28;19925;-70
2023/03/19 00:40:26;;;;;;;;;;;11.90;99.90;;;;;;8386452;28;19925;-70
2023/03/19 00:44:27;;;;;;;;;;;11.90;99.90;;;;;;8382928;28;20159;-69
2023/03/19 00:48:29;;;;;;;;;;;11.80;99.90;;;;;;8376047;28;19928;-69
2023/03/19 00:52:31;;;;;;;;;;;11.80;99.90;;;;;;8377438;28;19925;-69
2023/03/19 00:56:32;;;;;;;;;;;11.70;99.90;;;;;;8392762;28;19967;-69
2023/03/19 01:00:35;;;;;;;;;;;11.60;99.90;;;;;;8394974;28;20291;-69
2023/03/19 01:04:36;;;;;;;;;;;11.60;99.90;;;;;;8376092;28;19924;-69
2023/03/19 01:08:38;;;;;;;;;;;11.50;99.90;;;;;;8368935;28;19978;-69
2023/03/19 01:12:40;;;;;;;;;;;11.50;99.90;;;;;;8375279;28;19985;-70
2023/03/19 01:16:42;;;;;;;;;;;11.40;99.90;;;;;;8384138;28;19932;-69
2023/03/19 01:20:44;;;;;;;;;;;11.40;99.90;;;;;;8380428;28;19928;-69
2023/03/19 01:24:46;;;;;;;;;;;11.40;99.90;;;;;;8365555;28;19970;-69
2023/03/19 01:28:48;;;;;;;;;;;11.40;99.90;;;;;;8372765;28;19924;-70
2023/03/19 01:32:49;;;;;;;;;;;11.30;99.90;;;;;;8385416;28;19924;-69
2023/03/19 01:36:51;;;;;;;;;;;11.30;99.90;;;;;;8366297;28;20019;-70
2023/03/19 01:40:53;;;;;;;;;;;11.30;99.90;;;;;;8376489;28;19936;-69
2023/03/19 01:44:55;;;;;;;;;;;11.30;99.90;;;;;;8384559;28;19963;-69
2023/03/19 01:48:58;;;;;;;;;;;11.30;99.90;;;;;;8389805;28;19928;-69
2023/03/19 01:53:00;;;;;;;;;;;11.30;99.90;;;;;;8373486;28;19939;-69
2023/03/19 01:57:05;;;;;;;;;;;11.30;99.90;;;;;;8369065;28;19924;-69
2023/03/19 02:01:07;;;;;;;;;;;11.40;99.90;;;;;;8373843;28;20467;-69
2023/03/19 02:05:10;;;;;;;;;;;11.40;99.90;;;;;;8384309;28;19924;-70
2023/03/19 02:09:13;;;;;;;;;;;11.40;99.90;;;;;;8390359;28;19924;-69
2023/03/19 02:13:15;;;;;;;;;;;11.30;99.90;;;;;;8383383;28;19929;-69
2023/03/19 02:17:17;;;;;;;;;;;11.30;99.90;;;;;;8371804;28;20006;-69
2023/03/19 02:21:18;;;;;;;;;;;11.20;99.90;;;;;;8365139;28;19928;-69
2023/03/19 02:25:23;;;;;;;;;;;11.20;99.90;;;;;;8387929;28;19974;-69
2023/03/19 02:29:25;;;;;;;;;;;11.10;99.90;;;;;;8377848;28;20300;-69
2023/03/19 02:33:27;;;;;;;;;;;11.10;99.90;;;;;;8387005;28;20322;-69
2023/03/19 02:37:29;;;;;;;;;;;11.00;99.90;;;;;;8379167;28;19933;-69
2023/03/19 02:41:36;;;;;;;;;;;11.00;99.90;;;;;;8374275;28;19925;-69
2023/03/19 02:45:38;;;;;;;;;;;11.00;99.90;;;;;;8385051;28;20316;-69
2023/03/19 02:49:40;;;;;;;;;;;10.90;99.90;;;;;;8386101;28;19931;-69
2023/03/19 02:53:41;;;;;;;;;;;10.90;99.90;;;;;;8390699;28;19925;-69
2023/03/19 02:57:43;;;;;;;;;;;10.90;99.90;;;;;;8378147;28;19932;-69
2023/03/19 03:01:45;;;;;;;;;;;11.00;99.90;;;;;;8387177;28;19935;-69
2023/03/19 03:05:47;;;;;;;;;;;11.00;99.90;;;;;;8370658;28;19936;-69
2023/03/19 03:09:49;;;;;;;;;;;11.00;99.90;;;;;;8389009;28;20394;-69
2023/03/19 03:13:50;;;;;;;;;;;11.00;99.90;;;;;;8387882;28;19928;-69
2023/03/19 03:17:52;;;;;;;;;;;11.00;99.90;;;;;;8379702;28;20275;-70
2023/03/19 03:26:51;;;;;;;;;;;11.00;99.90;;;;;;8384401;28;20284;-69
2023/03/19 03:30:59;;;;;;;;;;;11.00;99.90;;;;;;8382391;28;19928;-69
2023/03/19 03:35:03;;;;;;;;;;;11.00;99.90;;;;;;8390332;28;20427;-69
2023/03/19 03:39:04;;;;;;;;;;;10.90;99.90;;;;;;8369730;28;20273;-69
2023/03/19 03:43:06;;;;;;;;;;;10.80;99.90;;;;;;8378028;28;20261;-69
2023/03/19 03:47:08;;;;;;;;;;;10.80;99.90;;;;;;8401233;28;19924;-69
2023/03/19 03:56:13;;;;;;;;;;;10.70;99.90;;;;;;8385445;28;19958;-69
2023/03/19 04:00:15;;;;;;;;;;;10.60;99.90;;;;;;8367043;28;19925;-69
2023/03/19 04:04:17;;;;;;;;;;;10.60;99.90;;;;;;8386065;28;19933;-69
2023/03/19 04:08:19;;;;;;;;;;;10.50;99.90;;;;;;8382918;28;20372;-69
2023/03/19 04:12:20;;;;;;;;;;;10.40;99.90;;;;;;8381324;28;20024;-69
2023/03/19 04:31:25;;;;;;;;;;;10.10;99.90;;;;;;8387867;28;20038;-69
2023/03/19 04:35:27;;;;;;;;;;;9.90;99.90;;;;;;8391587;28;19928;-69
2023/03/19 04:39:29;;;;;;;;;;;9.80;99.90;;;;;;8360340;28;20056;-69
2023/03/19 04:43:31;;;;;;;;;;;9.80;99.90;;;;;;8366364;28;20011;-69
2023/03/19 04:47:33;;;;;;;;;;;9.70;99.90;;;;;;8377107;28;19949;-69
2023/03/19 04:51:34;;;;;;;;;;;9.70;99.90;;;;;;8360088;28;19929;-69
2023/03/19 04:55:37;;;;;;;;;;;9.60;99.90;;;;;;8384288;28;19925;-69
2023/03/19 04:59:38;;;;;;;;;;;9.50;99.90;;;;;;8383824;28;19928;-69
2023/03/19 05:03:40;;;;;;;;;;;9.40;99.90;;;;;;8381369;28;19967;-69
2023/03/19 05:07:41;;;;;;;;;;;9.40;99.90;;;;;;8362762;28;20318;-69
2023/03/19 05:11:43;;;;;;;;;;;9.30;99.90;;;;;;8357537;28;20344;-69
2023/03/19 05:15:45;;;;;;;;;;;9.20;99.90;;;;;;8397250;28;20391;-69
2023/03/19 05:19:47;;;;;;;;;;;9.10;99.90;;;;;;8386100;28;20367;-69
2023/03/19 05:23:51;;;;;;;;;;;9.10;99.90;;;;;;8377254;28;20055;-69
2023/03/19 05:27:53;;;;;;;;;;;9.00;99.90;;;;;;8375617;28;19939;-69
2023/03/19 05:31:55;;;;;;;;;;;9.00;99.90;;;;;;8381570;28;19931;-70
2023/03/19 05:35:57;;;;;;;;;;;8.90;99.90;;;;;;8378387;28;19935;-70
2023/03/19 05:40:00;;;;;;;;;;;8.90;99.90;;;;;;8380377;28;19929;-69
2023/03/19 05:44:03;;;;;;;;;;;8.90;99.90;;;;;;8377714;28;19930;-69
2023/03/19 05:48:05;;;;;;;;;;;8.80;99.90;;;;;;8393888;28;19991;-71
2023/03/19 05:52:06;;;;;;;;;;;8.80;99.90;;;;;;8372729;28;20028;-71
2023/03/19 05:56:08;;;;;;;;;;;8.80;99.90;;;;;;8388877;28;19979;-71
2023/03/19 06:00:11;;;;;;;;;;;8.80;99.90;;;;;;8372619;28;20362;-71
2023/03/19 06:04:12;;;;;;;;;;;8.80;99.90;;;;;;8360488;28;19932;-71
2023/03/19 06:08:14;;;;;;;;;;;8.80;99.90;;;;;;8380275;28;19925;-71
2023/03/19 06:12:16;;;;;;;;;;;8.70;99.90;;;;;;8380950;28;19962;-71
2023/03/19 06:16:17;;;;;;;;;;;8.60;99.90;;;;;;8382086;28;19928;-71
2023/03/19 06:20:19;;;;;;;;;;;8.70;99.90;;;;;;8380899;28;20085;-71
2023/03/19 06:24:20;;;;;;;;;;;8.80;99.90;;;;;;8382022;28;20001;-71
2023/03/19 06:28:22;;;;;;;;;;;8.90;99.90;;;;;;8380979;28;19924;-71
2023/03/19 06:32:24;;;;;;;;;;;9.00;99.90;;;;;;8373535;28;20304;-71
2023/03/19 06:36:25;;;;;;;;;;;9.00;99.90;;;;;;8382779;28;19925;-71
2023/03/19 06:40:27;;;;;;;;;;;9.00;99.90;;;;;;8374377;28;20053;-71
2023/03/19 06:44:29;;;;;;;;;;;9.00;99.90;;;;;;8387785;28;20295;-71
2023/03/19 06:48:30;;;;;;;;;;;9.00;99.90;;;;;;8380079;28;19956;-70
2023/03/19 06:52:32;;;;;;;;;;;9.00;99.90;;;;;;8366267;28;19925;-69
2023/03/19 06:56:34;;;;;;;;;;;9.10;99.90;;;;;;8403319;28;19960;-70
2023/03/19 07:00:35;;;;;;;;;;;9.20;99.90;;;;;;8374877;28;20356;-70
2023/03/19 07:04:37;;;;;;;;;;;9.20;99.90;;;;;;8366202;28;20261;-70
2023/03/19 07:08:44;;;;;;;;;;;9.40;99.90;;;;;;8369422;28;19924;-70
2023/03/19 07:12:46;;;;;;;;;;;9.50;99.90;;;;;;8398623;28;19986;-70
2023/03/19 07:16:48;;;;;;;;;;;9.50;99.90;;;;;;8388337;28;19956;-70
2023/03/19 07:20:51;;;;;;;;;;;9.60;99.90;;;;;;8394146;28;20284;-70
2023/03/19 07:24:53;;;;;;;;;;;9.70;99.90;;;;;;8395379;28;19932;-70
2023/03/19 07:28:54;;;;;;;;;;;9.70;99.90;;;;;;8401983;28;19923;-69
2023/03/19 07:43:04;;;;;;;;;;;9.80;99.90;;;;;;8382987;28;20398;-69
2023/03/19 07:47:06;;;;;;;;;;;9.70;99.90;;;;;;8367937;28;20346;-69
2023/03/19 07:51:23;;;;;;;;;;;9.70;99.90;;;;;;8381269;28;20426;-69
2023/03/19 07:55:24;;;;;;;;;;;9.70;99.90;;;;;;8372601;28;19929;-69
2023/03/19 07:59:26;;;;;;;;;;;9.60;99.90;;;;;;8389789;28;19948;-69
2023/03/19 08:03:28;;;;;;;;;;;9.70;99.90;;;;;;8390429;28;19931;-69
2023/03/19 08:07:30;;;;;;;;;;;9.80;99.90;;;;;;8365913;28;19925;-69
2023/03/19 08:11:32;;;;;;;;;;;9.80;99.90;;;;;;8384553;28;19929;-70
2023/03/19 08:15:33;;;;;;;;;;;9.90;99.90;;;;;;8395024;28;19979;-69
2023/03/19 08:19:35;;;;;;;;;;;9.80;99.90;;;;;;8376898;28;20299;-69
2023/03/19 08:23:36;;;;;;;;;;;9.90;99.90;;;;;;8398896;28;19925;-69
2023/03/19 08:27:38;;;;;;;;;;;9.90;99.90;;;;;;8362789;28;19924;-69
2023/03/19 08:31:40;;;;;;;;;;;10.00;99.90;;;;;;8376623;28;19967;-69
2023/03/19 08:35:41;;;;;;;;;;;10.00;99.90;;;;;;8383610;28;19936;-69
2023/03/19 08:39:43;;;;;;;;;;;10.00;99.90;;;;;;8400359;28;20433;-69
2023/03/19 08:43:45;;;;;;;;;;;10.20;99.90;;;;;;8373931;28;19946;-70
2023/03/19 08:47:46;;;;;;;;;;;10.20;99.90;;;;;;8363326;28;20071;-69
2023/03/19 08:51:49;;;;;;;;;;;10.30;99.90;;;;;;8379087;28;19936;-70
2023/03/19 08:55:52;;;;;;;;;;;10.30;99.90;;;;;;8364853;28;19928;-70
2023/03/19 08:59:54;;;;;;;;;;;10.30;99.90;;;;;;8363148;28;19928;-70
2023/03/19 09:03:55;;;;;;;;;;;10.30;99.90;;;;;;8372840;28;20515;-69
2023/03/19 09:07:57;;;;;;;;;;;10.30;99.90;;;;;;8387137;28;19924;-70
2023/03/19 09:11:58;;;;;;;;;;;10.30;99.90;;;;;;8390339;28;19935;-69
2023/03/19 09:16:00;;;;;;;;;;;10.30;99.90;;;;;;8388490;28;19924;-70
2023/03/19 09:20:02;;;;;;;;;;;10.30;99.90;;;;;;8382653;28;19986;-69
2023/03/19 09:24:04;;;;;;;;;;;10.30;99.90;;;;;;8383134;28;20344;-70
2023/03/19 09:28:05;;;;;;;;;;;10.40;99.90;;;;;;8379726;28;19931;-69
2023/03/19 09:32:07;;;;;;;;;;;10.40;99.90;;;;;;8385175;28;19978;-69
2023/03/19 09:36:09;;;;;;;;;;;10.40;99.90;;;;;;8376215;28;20052;-69
2023/03/19 09:40:19;;;;;;;;;;;10.40;99.90;;;;;;8359750;28;19933;-69
2023/03/19 09:44:26;;;;;;;;;;;10.30;99.90;;;;;;8376597;28;19924;-70
2023/03/19 09:48:45;;;;;;;;;;;10.40;99.90;;;;;;8371118;28;20027;-69
2023/03/19 09:52:47;;;;;;;;;;;10.40;99.90;;;;;;8362084;28;19956;-69
2023/03/19 09:56:49;;;;;;;;;;;10.40;99.90;;;;;;8392445;28;20140;-70
2023/03/19 10:00:52;;;;;;;;;;;10.40;99.90;;;;;;8374437;28;19924;-69
2023/03/19 10:05:05;;;;;;;;;;;10.40;99.90;;;;;;8372570;28;19940;-69
2023/03/19 10:09:20;;;;;;;;;;;10.60;99.90;;;;;;8380965;28;19931;-70
2023/03/19 10:13:46;;;;;;;;;;;10.60;99.90;;;;;;8379564;28;20023;-69
2023/03/19 10:17:52;;;;;;;;;;;10.70;99.90;;;;;;8379884;28;19925;-69
2023/03/19 10:21:57;;;;;;;;;;;10.80;99.90;;;;;;8393061;28;19924;-70
2023/03/19 10:26:00;;;;;;;;;;;10.90;99.90;;;;;;8384327;28;20631;-69
2023/03/19 10:30:11;;;;;;;;;;;11.00;99.90;;;;;;8372065;28;19928;-70
2023/03/19 10:34:19;;;;;;;;;;;11.10;99.90;;;;;;8379259;28;19935;-69
2023/03/19 10:38:22;;;;;;;;;;;11.10;99.90;;;;;;8400291;28;19975;-69
2023/03/19 10:42:40;;;;;;;;;;;11.10;99.90;;;;;;8384182;28;19935;-70
2023/03/19 10:46:41;;;;;;;;;;;11.10;99.90;;;;;;8387805;28;20543;-70
2023/03/19 10:50:57;;;;;;;;;;;11.10;99.90;;;;;;8405174;28;19933;-69
2023/03/19 10:55:02;;;;;;;;;;;11.10;99.90;;;;;;8398956;28;19928;-69
2023/03/19 10:59:05;;;;;;;;;;;11.10;99.90;;;;;;8391393;28;19986;-69
2023/03/19 11:03:27;;;;;;;;;;;11.10;99.90;;;;;;8379941;28;20288;-70
2023/03/19 11:07:31;;;;;;;;;;;11.00;99.90;;;;;;8378561;28;19924;-70
2023/03/19 11:11:35;;;;;;;;;;;10.90;99.90;;;;;;8390196;28;19971;-69
2023/03/19 11:15:37;;;;;;;;;;;10.80;99.90;;;;;;8385109;28;19925;-69
2023/03/19 11:19:40;;;;;;;;;;;10.80;99.90;;;;;;8390538;28;19924;-69
2023/03/19 11:23:41;;;;;;;;;;;10.80;99.90;;;;;;8379860;28;19929;-69
2023/03/19 11:27:44;;;;;;;;;;;10.80;99.90;;;;;;8388816;28;20004;-69
2023/03/19 11:31:51;;;;;;;;;;;10.70;99.90;;;;;;8383980;28;19932;-69
2023/03/19 11:36:03;;;;;;;;;;;10.70;99.90;;;;;;8380771;28;19933;-69
2023/03/19 11:40:36;;;;;;;;;;;10.70;99.90;;;;;;8369550;28;19928;-69
2023/03/19 11:44:39;;;;;;;;;;;10.90;99.90;;;;;;8350465;28;20065;-69
2023/03/19 11:48:52;;;;;;;;;;;11.00;99.90;;;;;;8357301;28;19933;-69
2023/03/19 11:53:10;;;;;;;;;;;11.10;99.90;;;;;;8351828;28;19931;-69
2023/03/19 11:57:27;;;;;;;;;;;11.10;99.90;;;;;;8354571;28;19979;-69
2023/03/19 12:01:30;;;;;;;;;;;11.10;99.90;;;;;;8355010;28;19939;-69
2023/03/19 12:05:34;;;;;;;;;;;11.20;99.90;;;;;;8356906;28;19928;-69
2023/03/19 12:09:46;;;;;;;;;;;11.20;99.90;;;;;;8354317;28;19956;-69
2023/03/19 12:13:51;;;;;;;;;;;11.40;99.90;;;;;;8353782;28;19956;-69
2023/03/19 12:18:07;;;;;;;;;;;11.50;99.90;;;;;;8355135;28;19936;-69
2023/03/19 12:22:27;;;;;;;;;;;11.60;99.90;;;;;;8333843;28;20869;-69
2023/03/19 12:26:29;;;;;;;;;;;11.70;99.90;;;;;;8353711;28;20403;-69
2023/03/19 12:30:33;;;;;;;;;;;11.80;99.90;;;;;;8372798;28;19972;-69
2023/03/19 12:34:37;;;;;;;;;;;11.90;99.90;;;;;;8363139;28;20284;-69
2023/03/19 12:38:47;;;;;;;;;;;12.00;99.90;;;;;;8376504;28;19964;-70
2023/03/19 12:42:48;;;;;;;;;;;12.10;99.90;;;;;;8368399;28;20024;-69
2023/03/19 12:46:55;;;;;;;;;;;12.20;99.90;;;;;;8349394;28;20296;-70
2023/03/19 12:51:02;;;;;;;;;;;12.40;99.90;;;;;;8363137;28;19929;-69
2023/03/19 12:55:04;;;;;;;;;;;12.40;99.90;;;;;;8367409;28;19964;-70
2023/03/19 12:59:24;;;;;;;;;;;12.50;99.90;;;;;;8364104;28;19924;-69
2023/03/19 13:03:46;;;;;;;;;;;12.50;99.90;;;;;;8368999;28;20019;-69
2023/03/19 13:08:09;;;;;;;;;;;12.60;99.90;;;;;;8369092;28;19932;-69
2023/03/19 13:12:14;;;;;;;;;;;12.70;99.90;;;;;;8361000;28;19928;-69
2023/03/19 13:16:54;;;;;;;;;;;12.60;99.90;;;;;;8362638;28;19924;-69
2023/03/19 13:21:08;;;;;;;;;;;12.70;99.90;;;;;;8269022;28;20476;-69
2023/03/19 13:25:13;;;;;;;;;;;12.70;99.90;;;;;;8313289;28;19933;-70
2023/03/19 13:29:18;;;;;;;;;;;12.90;99.90;;;;;;8353633;28;19983;-69
2023/03/19 13:33:21;;;;;;;;;;;13.00;99.90;;;;;;8352806;28;20019;-69
2023/03/19 13:37:23;;;;;;;;;;;13.20;99.90;;;;;;8355580;28;20392;-69
2023/03/19 13:41:45;;;;;;;;;;;13.20;99.90;;;;;;8354277;28;19972;-69
2023/03/19 13:45:50;;;;;;;;;;;13.30;99.90;;;;;;8354011;28;19982;-69
2023/03/19 13:50:04;;;;;;;;;;;13.40;99.90;;;;;;8350647;28;20028;-69
2023/03/19 13:54:11;;;;;;;;;;;13.50;99.90;;;;;;8352702;28;19928;-69
2023/03/19 13:58:48;;;;;;;;;;;13.80;99.90;;;;;;8354365;28;19943;-69
2023/03/19 14:02:38;;;;;;;;;;;14.20;99.90;;;;;;8357772;28;20415;-69
2023/03/19 14:06:42;;;;;;;;;;;14.50;99.90;;;;;;8342318;28;19989;-69
2023/03/19 14:10:49;;;;;;;;;;;14.70;99.90;;;;;;8355800;28;19933;-69
2023/03/19 14:14:54;;;;;;;;;;;14.90;99.90;;;;;;8359534;28;19928;-69
2023/03/19 14:18:56;;;;;;;;;;;14.90;99.90;;;;;;8358646;28;20016;-69
2023/03/19 14:23:10;;;;;;;;;;;14.80;99.90;;;;;;8353954;28;19978;-69
2023/03/19 14:27:49;;;;;;;;;;;14.60;99.90;;;;;;8358269;28;20364;-69
2023/03/19 14:32:01;;;;;;;;;;;14.60;99.90;;;;;;8362519;28;20024;-69
2023/03/19 14:36:06;;;;;;;;;;;14.70;99.90;;;;;;8345194;28;20497;-69
2023/03/19 14:40:10;;;;;;;;;;;14.60;99.90;;;;;;8361374;28;19925;-69
2023/03/19 14:44:32;;;;;;;;;;;14.50;99.90;;;;;;8355252;28;20131;-69
2023/03/19 14:48:52;;;;;;;;;;;14.30;99.90;;;;;;8374136;28;19933;-70
2023/03/19 14:53:13;;;;;;;;;;;14.30;99.90;;;;;;8351852;28;19972;-69
2023/03/19 14:57:16;;;;;;;;;;;14.20;99.90;;;;;;8356493;28;19935;-70
2023/03/19 15:01:19;;;;;;;;;;;14.30;99.90;;;;;;8351906;28;20493;-69
2023/03/19 15:05:31;;;;;;;;;;;14.40;99.90;;;;;;8361256;28;20011;-69
2023/03/19 15:09:34;;;;;;;;;;;14.50;99.90;;;;;;8356192;28;19931;-69
2023/03/19 15:13:54;;;;;;;;;;;14.70;99.90;;;;;;8348897;28;19924;-69
2023/03/19 15:18:04;;;;;;;;;;;14.90;99.90;;;;;;8361699;28;19925;-69
2023/03/19 15:22:19;;;;;;;;;;;15.20;99.90;;;;;;8362730;28;20295;-69
2023/03/19 15:26:31;;;;;;;;;;;15.20;99.90;;;;;;8364882;28;19935;-69
2023/03/19 15:30:32;;;;;;;;;;;14.90;99.90;;;;;;8367092;28;19929;-69
2023/03/19 15:34:55;;;;;;;;;;;14.60;99.90;;;;;;8349297;28;19932;-69
2023/03/19 15:38:59;;;;;;;;;;;14.40;99.90;;;;;;8359443;28;19931;-69
2023/03/19 15:43:03;;;;;;;;;;;14.20;99.90;;;;;;8359143;28;20400;-69
2023/03/19 15:47:07;;;;;;;;;;;14.10;99.90;;;;;;8359667;28;19925;-69
2023/03/19 15:51:11;;;;;;;;;;;13.90;99.90;;;;;;8357133;28;19924;-69
2023/03/19 15:55:13;;;;;;;;;;;13.80;99.90;;;;;;8359394;28;19929;-69
2023/03/19 15:59:15;;;;;;;;;;;13.80;99.90;;;;;;8357705;28;19929;-69
2023/03/19 16:03:19;;;;;;;;;;;13.70;99.90;;;;;;8350330;28;19925;-69
2023/03/19 16:07:25;;;;;;;;;;;13.60;99.90;;;;;;8360345;28;19951;-69
2023/03/19 16:11:35;;;;;;;;;;;13.60;99.90;;;;;;8356878;28;19935;-69
2023/03/19 16:15:44;;;;;;;;;;;13.50;99.90;;;;;;8347257;28;19956;-69
2023/03/19 16:19:49;;;;;;;;;;;13.50;99.90;;;;;;8355138;28;19967;-69
2023/03/19 16:23:53;;;;;;;;;;;13.50;99.90;;;;;;8358445;28;19931;-69
2023/03/19 16:27:55;;;;;;;;;;;13.40;99.90;;;;;;8360212;28;19928;-69
2023/03/19 16:32:23;;;;;;;;;;;13.30;99.90;;;;;;8363012;28;20335;-69
2023/03/19 16:36:30;;;;;;;;;;;13.30;99.90;;;;;;8354042;28;20632;-69
2023/03/19 16:40:39;;;;;;;;;;;13.20;99.90;;;;;;8358711;28;19932;-69
2023/03/19 16:44:45;;;;;;;;;;;13.10;99.90;;;;;;8354538;28;20019;-69
2023/03/19 16:48:47;;;;;;;;;;;13.00;99.90;;;;;;8358218;28;20388;-69
2023/03/19 16:52:48;;;;;;;;;;;12.90;99.90;;;;;;8346163;28;19960;-69
2023/03/19 16:56:50;;;;;;;;;;;12.70;99.90;;;;;;8344892;28;19935;-69
2023/03/19 17:00:52;;;;;;;;;;;12.50;99.90;;;;;;8362399;28;19972;-69
2023/03/19 17:04:53;;;;;;;;;;;12.40;99.90;;;;;;8356352;28;20331;-69
2023/03/19 17:08:55;;;;;;;;;;;12.40;99.90;;;;;;8351712;28;20325;-69
2023/03/19 17:12:57;;;;;;;;;;;12.30;99.90;;;;;;8356209;28;20288;-69
2023/03/19 17:16:58;;;;;;;;;;;12.20;99.90;;;;;;8352677;28;20292;-69
2023/03/19 17:21:14;;;;;;;;;;;12.10;99.90;;;;;;8362750;28;19932;-69
2023/03/19 17:25:19;;;;;;;;;;;12.10;99.90;;;;;;8342633;28;19959;-69
2023/03/19 17:29:23;;;;;;;;;;;12.00;99.90;;;;;;8358918;28;19929;-69
2023/03/19 17:33:26;;;;;;;;;;;12.00;99.90;;;;;;8343852;28;19929;-69
2023/03/19 17:37:29;;;;;;;;;;;11.90;99.90;;;;;;8348755;28;19925;-69
2023/03/19 17:41:34;;;;;;;;;;;11.90;99.90;;;;;;8365099;28;19976;-68
2023/03/19 17:45:37;;;;;;;;;;;11.80;99.90;;;;;;8362294;28;20518;-69
2023/03/19 17:49:40;;;;;;;;;;;11.70;99.90;;;;;;8349719;28;19929;-69
2023/03/19 17:53:45;;;;;;;;;;;11.70;99.90;;;;;;8335906;28;19925;-69
2023/03/19 17:57:48;;;;;;;;;;;11.70;99.90;;;;;;8348278;28;20275;-69
2023/03/19 18:01:49;;;;;;;;;;;11.60;99.90;;;;;;8355343;28;19928;-69
2023/03/19 18:05:51;;;;;;;;;;;11.60;99.90;;;;;;8354631;28;19924;-69
2023/03/19 18:09:53;;;;;;;;;;;11.60;99.90;;;;;;8371206;28;19924;-69
2023/03/19 18:13:54;;;;;;;;;;;11.60;99.90;;;;;;8371674;28;19932;-69
2023/03/19 18:17:57;;;;;;;;;;;11.50;99.90;;;;;;8354200;28;19933;-69
2023/03/19 18:21:59;;;;;;;;;;;11.50;99.90;;;;;;8338299;28;20427;-69
2023/03/19 18:26:00;;;;;;;;;;;11.50;99.90;;;;;;8371822;28;19990;-69
2023/03/19 18:30:02;;;;;;;;;;;11.50;99.90;;;;;;8350182;28;20014;-69
2023/03/19 18:34:07;;;;;;;;;;;11.50;99.90;;;;;;8357843;28;20326;-69
2023/03/19 18:38:26;;;;;;;;;;;11.50;99.90;;;;;;8352861;28;19979;-69
2023/03/19 18:52:37;;;;;;;;;;;11.40;99.90;;;;;;8361018;28;20016;-69
2023/03/19 18:56:38;;;;;;;;;;;11.40;99.90;;;;;;8362384;28;19983;-69
2023/03/19 19:00:40;;;;;;;;;;;11.40;99.90;;;;;;8363781;28;19931;-69
2023/03/19 19:04:42;;;;;;;;;;;11.40;99.90;;;;;;8356349;28;19936;-69
2023/03/19 19:08:44;;;;;;;;;;;11.40;99.90;;;;;;8344093;28;19932;-69
2023/03/19 19:12:47;;;;;;;;;;;11.40;99.90;;;;;;8360933;28;19925;-69
2023/03/19 19:16:51;;;;;;;;;;;11.40;99.90;;;;;;8348613;28;19951;-69
2023/03/19 19:20:53;;;;;;;;;;;11.30;99.90;;;;;;8365551;28;19979;-68
2023/03/19 19:24:55;;;;;;;;;;;11.30;99.90;;;;;;8357234;28;20277;-69
2023/03/19 19:28:58;;;;;;;;;;;11.30;99.90;;;;;;8365934;28;19979;-69
2023/03/19 19:32:59;;;;;;;;;;;11.30;99.90;;;;;;8360121;28;20506;-69
2023/03/19 19:37:01;;;;;;;;;;;11.20;99.90;;;;;;8363136;28;20058;-69
2023/03/19 19:41:05;;;;;;;;;;;11.10;99.90;;;;;;8363648;28;19984;-69
2023/03/19 19:45:15;;;;;;;;;;;11.00;99.90;;;;;;8355578;28;19939;-69
2023/03/19 19:49:18;;;;;;;;;;;11.00;99.90;;;;;;8357859;28;19939;-68
2023/03/19 19:53:20;;;;;;;;;;;10.90;99.90;;;;;;8349927;28;20402;-69
2023/03/19 19:57:23;;;;;;;;;;;10.80;99.90;;;;;;8357574;28;19924;-69
2023/03/19 20:01:25;;;;;;;;;;;10.80;99.90;;;;;;8344779;28;19978;-69
2023/03/19 20:05:29;;;;;;;;;;;10.70;99.90;;;;;;8340957;28;19932;-69
2023/03/19 20:09:30;;;;;;;;;;;10.70;99.90;;;;;;8338917;28;19940;-68
2023/03/19 20:13:33;;;;;;;;;;;10.60;99.90;;;;;;8363211;28;19933;-69
2023/03/19 20:17:35;;;;;;;;;;;10.50;99.90;;;;;;8354209;28;19928;-69
2023/03/19 20:21:37;;;;;;;;;;;10.40;99.90;;;;;;8353506;28;20176;-68
2023/03/19 20:25:39;;;;;;;;;;;10.40;99.90;;;;;;8353833;28;19932;-69
2023/03/19 20:29:41;;;;;;;;;;;10.40;99.90;;;;;;8368982;28;20307;-69
2023/03/19 20:33:42;;;;;;;;;;;10.30;99.90;;;;;;8360766;28;19928;-68
2023/03/19 20:37:45;;;;;;;;;;;10.20;99.90;;;;;;8349940;28;20415;-68
2023/03/19 20:41:48;;;;;;;;;;;10.10;99.90;;;;;;8366615;28;19947;-69
2023/03/19 20:45:50;;;;;;;;;;;10.10;99.90;;;;;;8350629;28;19995;-69
2023/03/19 20:49:52;;;;;;;;;;;10.00;99.90;;;;;;8351864;28;19925;-69
2023/03/19 20:53:54;;;;;;;;;;;10.00;99.90;;;;;;8354218;28;20372;-69
2023/03/19 20:57:56;;;;;;;;;;;9.90;99.90;;;;;;8351699;28;20027;-69
2023/03/19 21:01:57;;;;;;;;;;;9.90;99.90;;;;;;8366620;28;20331;-69
2023/03/19 21:06:00;;;;;;;;;;;9.90;99.90;;;;;;8357084;28;19979;-69
2023/03/19 21:10:11;;;;;;;;;;;9.80;99.90;;;;;;8355963;28;20339;-69
2023/03/19 21:14:14;;;;;;;;;;;9.80;99.90;;;;;;8356395;28;19951;-69
2023/03/19 21:18:16;;;;;;;;;;;9.80;99.90;;;;;;8352508;28;20303;-68
2023/03/19 21:22:23;;;;;;;;;;;9.80;99.90;;;;;;8353451;28;20051;-69
2023/03/19 21:26:24;;;;;;;;;;;9.80;99.90;;;;;;8356796;28;19982;-69
2023/03/19 21:30:26;;;;;;;;;;;9.70;99.90;;;;;;8356207;28;20485;-68
2023/03/19 21:34:28;;;;;;;;;;;9.70;99.90;;;;;;8357272;28;20427;-69
2023/03/19 21:38:31;;;;;;;;;;;9.70;99.90;;;;;;8358526;28;19978;-69
2023/03/19 21:42:33;;;;;;;;;;;9.70;99.90;;;;;;8353657;28;19935;-68
2023/03/19 21:46:35;;;;;;;;;;;9.70;99.90;;;;;;8354193;28;19939;-69
2023/03/19 21:50:38;;;;;;;;;;;9.70;99.90;;;;;;8354340;28;20415;-68
2023/03/19 21:54:40;;;;;;;;;;;9.70;99.90;;;;;;8348579;28;19932;-69
2023/03/19 21:58:41;;;;;;;;;;;9.70;99.90;;;;;;8361386;28;19935;-69
2023/03/19 22:02:45;;;;;;;;;;;9.70;99.90;;;;;;8365011;28;19983;-69
2023/03/19 22:06:47;;;;;;;;;;;9.70;99.90;;;;;;8383262;28;20402;-69
2023/03/19 22:10:56;;;;;;;;;;;9.70;99.90;;;;;;8385528;28;20376;-69
2023/03/19 22:14:58;;;;;;;;;;;9.70;99.90;;;;;;8377311;28;19936;-69
2023/03/19 22:19:00;;;;;;;;;;;9.70;99.90;;;;;;8389732;28;19939;-69
2023/03/19 22:23:02;;;;;;;;;;;9.70;99.90;;;;;;8387613;28;20280;-69
2023/03/19 22:27:03;;;;;;;;;;;9.70;99.90;;;;;;8369616;28;19947;-69
2023/03/19 22:31:05;;;;;;;;;;;9.70;99.90;;;;;;8390162;28;19924;-69
2023/03/19 22:35:13;;;;;;;;;;;9.70;99.90;;;;;;8386725;28;20402;-69
2023/03/19 22:39:15;;;;;;;;;;;9.70;99.90;;;;;;8381681;28;19939;-69
2023/03/19 22:43:19;;;;;;;;;;;9.70;99.90;;;;;;8397802;28;19924;-70
2023/03/19 22:47:22;;;;;;;;;;;9.60;99.90;;;;;;8380273;28;19931;-69
2023/03/19 22:51:26;;;;;;;;;;;9.60;99.90;;;;;;8381331;28;19933;-69
2023/03/19 22:55:27;;;;;;;;;;;9.60;99.90;;;;;;8384716;28;20416;-69
2023/03/19 22:59:29;;;;;;;;;;;9.50;99.90;;;;;;8387153;28;20030;-68
2023/03/19 23:03:33;;;;;;;;;;;9.50;99.90;;;;;;8384841;28;20356;-69
2023/03/19 23:07:36;;;;;;;;;;;9.40;99.90;;;;;;8394891;28;19956;-69
2023/03/19 23:11:38;;;;;;;;;;;9.40;99.90;;;;;;8383038;28;20300;-69
2023/03/19 23:15:40;;;;;;;;;;;9.40;99.90;;;;;;8390763;28;19928;-69
2023/03/19 23:19:42;;;;;;;;;;;9.40;99.90;;;;;;8372980;28;19955;-69
2023/03/19 23:33:51;;;;;;;;;;;9.30;99.90;;;;;;8386207;28;19924;-69
2023/03/19 23:37:56;;;;;;;;;;;9.30;99.90;;;;;;8380704;28;19924;-69
2023/03/19 23:41:59;;;;;;;;;;;9.30;99.90;;;;;;8376778;28;19935;-69
2023/03/19 23:46:01;;;;;;;;;;;9.30;99.90;;;;;;8384123;28;19947;-69
2023/03/19 23:50:02;;;;;;;;;;;9.30;99.90;;;;;;8393071;28;19940;-69
2023/03/19 23:54:13;;;;;;;;;;;9.30;99.90;;;;;;8376647;28;20395;-69
2023/03/19 23:58:15;;;;;;;;;;;9.30;99.90;;;;;;8352591;28;19963;-68
